Station: Batchelor

  Atmospheric Gas Attenuation - ITU Rec 676-11   --------------- db/100km ---------------
Date Time Temp RH % AH g/m3 Dew Point Wind Direction Speed kph Gust kph Barometer mB Rainfall Since 9am 24GHz 47GHz 76GHz 122GHz 134GHz 241GHz
07 07:00 19.4 96 16.02 18.7 4 6 1012.3 0 35.1 36.9 68.4 180.8 194.3 673.9
07 06:50 19.5 96 16.11 18.8 6 7 1013.1 0 35.3 37.1 68.8 181.8 195.5 678.2
07 06:40 19.5 96 16.11 18.8 7 9 1013.1 0 35.3 37.1 68.8 181.8 195.5 678.2
07 06:30 19.3 95 15.76 18.5 7 11 1012.1 0 34.6 36.5 67.3 177.7 190.5 660.7
07 06:20 19 94 15.32 18.1 7 11 1013.1 0 33.7 35.8 65.5 173.1 184.7 640.3
07 06:10 18.1 94 14.52 17.1 7 9 1013.1 0 32.0 34.7 62.6 165.2 174.7 605.4
07 06:00 17.6 92 13.8 16.3 4 6 1011.8 0 30.5 33.5 59.6 157.3 164.9 571.1
07 05:50 18.2 91 14.14 16.8 4 4 1013.1 0 31.2 33.9 60.7 160.3 168.8 584.8
07 05:40 17.9 90 13.74 16.2 6 6 1013.1 0 30.4 33.3 59.2 156.1 163.5 566.3
07 05:30 17.7 91 13.73 16.2 6 9 1011.4 0 30.4 33.3 59.2 156.2 163.6 566.6
07 05:20 17.5 91 13.57 16 7 7 1013.1 0 30.0 33.2 58.7 154.9 161.8 560.5
07 05:10 17.6 91 13.65 16.2 7 11 1013.1 0 30.2 33.3 59.0 155.7 162.8 563.9
07 04:50 16.8 94 13.44 15.8 6 6 1013.1 0 29.8 33.2 58.7 154.7 161.4 558.9
07 04:40 15.6 92 12.23 14.3 4 4 1013.1 0 27.3 31.5 54.1 142.6 146.0 505.1
07 04:30 15.8 90 12.11 14.2 4 6 1010.9 0 27.0 31.1 53.3 140.5 143.6 496.8
07 04:20 15.9 91 12.32 14.4 4 4 1013.1 0 27.4 31.5 54.3 143.1 146.7 507.7
07 04:10 16.3 88 12.21 14.4 2 2 1013.1 0 27.2 31.2 53.5 141.0 144.4 499.5
07 04:00 16.9 92 13.23 15.6 4 6 1010.7 0 29.3 32.7 57.5 151.7 157.8 546.3
07 03:50 17.2 91 13.33 15.7 0 0 1013.1 0 29.5 32.9 57.8 152.6 158.9 550.3
07 03:40 17.1 88 12.81 15.1 0 0 1013.1 0 28.4 32.0 55.6 146.6 151.5 524.5
07 03:30 17.7 89 13.43 15.9 0 2 1010.5 0 29.7 32.7 57.8 152.5 159.0 550.8
07 03:20 18.1 89 13.75 16.2 2 2 1013.1 0 30.4 33.3 59.1 155.8 163.2 565.3
07 03:10 18.4 87 13.68 16.3 4 6 1013.1 0 30.2 33.0 58.5 154.4 161.5 559.5
07 03:00 18.2 86 13.37 15.8 4 6 1010.6 0 29.5 32.5 57.1 150.8 157.1 544.2
07 02:50 18.5 87 13.76 16.3 6 6 1013.1 0 30.4 33.1 58.8 155.2 162.5 562.9
07 02:40 18 87 13.36 15.8 6 6 1013.1 0 29.5 32.6 57.4 151.4 157.7 546.1
07 02:30 18.1 85 13.13 15.5 4 4 1010.5 0 29.0 32.1 56.1 148.1 153.8 532.7
07 02:20 18.5 85 13.45 15.9 4 4 1013.1 0 29.7 32.6 57.4 151.5 157.9 547.1
07 02:10 18.6 84 13.37 15.8 6 6 1013.1 0 29.5 32.4 57.0 150.3 156.6 542.4
07 02:00 18.5 84 13.29 15.7 4 6 1010.6 0 29.4 32.2 56.6 149.3 155.3 538.0
07 01:50 18.8 83 13.37 15.8 4 4 1013.1 0 29.5 32.3 56.8 149.9 156.2 540.9
07 01:40 18.8 82 13.21 15.6 4 4 1013.1 0 29.2 32.0 56.1 148.1 153.9 532.9
07 01:30 19.3 81 13.43 16 4 4 1010.8 0 29.6 32.2 56.6 149.4 155.7 539.5
07 01:20 19.3 81 13.43 15.9 4 4 1013.1 0 29.6 32.2 56.7 149.7 156.0 540.4
07 01:10 19.5 77 12.92 15.5 4 4 1013.1 0 28.5 31.3 54.4 143.4 148.3 513.7
07 01:00 20 79 13.65 16.2 2 4 1011 0 30.0 32.3 57.1 150.6 157.5 545.6
07 00:50 19.6 78 13.17 15.6 4 4 1013.1 0 29.0 31.7 55.4 146.1 151.7 525.4
07 00:40 19.9 78 13.4 15.9 4 4 1013.1 0 29.5 32.0 56.2 148.2 154.3 534.7
07 00:30 19.9 77 13.23 15.7 4 6 1011.1 0 29.1 31.6 55.3 145.9 151.7 525.5
07 00:20 20.1 77 13.38 15.9 6 6 1013.1 0 29.4 31.9 55.9 147.5 153.7 532.4
07 00:10 20.2 75 13.11 15.6 4 4 1013.1 0 28.8 31.4 54.7 144.3 149.6 518.4
07 00:00 20.5 75 13.34 15.9 4 6 1011.3 0 29.3 31.6 55.4 146.1 152.1 526.9
06 23:50 20.8 74 13.4 16 4 4 1013.1 0 29.4 31.6 55.5 146.4 152.5 528.5
06 23:40 20.8 72 13.04 15.7 6 6 1013.1 0 28.6 31.0 54.0 142.4 147.5 511.0
06 23:30 21.3 72 13.42 16 4 6 1011.6 0 29.4 31.4 55.2 145.5 151.6 525.5
06 23:20 21.6 71 13.46 16.1 4 6 1013.1 0 29.5 31.5 55.2 145.6 151.8 526.0
06 23:10 21.7 71 13.54 16.2 6 7 1013.1 0 29.6 31.6 55.5 146.3 152.7 529.2
06 23:00 21.8 71 13.62 16.3 6 7 1011.7 0 29.8 31.6 55.7 146.9 153.4 531.9
06 22:50 21.8 71 13.62 16.3 6 7 1013.1 0 29.8 31.7 55.7 147.1 153.6 532.4
06 22:40 21.7 71 13.54 16.2 6 7 1013.1 0 29.6 31.6 55.5 146.3 152.7 529.2
06 22:30 21.7 71 13.54 16.2 6 7 1011.7 0 29.7 31.5 55.4 146.2 152.5 528.7
06 22:20 21.7 71 13.54 16.2 4 4 1013.1 0 29.6 31.6 55.5 146.3 152.7 529.2
06 22:10 21.9 69 13.31 16.1 4 4 1013.1 0 29.1 31.1 54.4 143.4 149.1 516.7
06 22:00 22.2 68 13.35 16 4 6 1011.7 0 29.2 31.0 54.2 143.1 148.9 516.1
06 21:50 22.5 66 13.18 16 4 4 1013.1 0 28.8 30.7 53.4 140.8 146.2 506.6
06 21:40 22.8 66 13.41 16.3 6 7 1013.1 0 29.3 30.9 54.1 142.8 148.7 515.6
06 21:30 23.1 66 13.64 16.4 7 11 1011.4 0 29.8 31.1 54.8 144.6 151.1 523.9
06 21:20 23.1 66 13.64 16.4 7 9 1013.1 0 29.8 31.2 54.9 144.8 151.3 524.5
06 21:10 23.2 66 13.72 16.5 7 7 1013.1 0 29.9 31.3 55.2 145.6 152.2 527.7
06 21:00 23.6 65 13.82 16.6 7 13 1011.1 0 30.1 31.3 55.2 145.7 152.5 529.0
06 20:50 23.7 65 13.9 16.7 7 11 1013.1 0 30.3 31.4 55.6 146.6 153.7 532.9
06 20:40 24 65 14.14 17 7 9 1013.1 0 30.7 31.7 56.4 148.7 156.3 542.3
06 20:30 24.1 65 14.22 17.1 7 13 1011 0 30.9 31.7 56.5 149.2 157.0 544.6
06 20:20 24.2 65 14.3 17.2 7 9 1013.1 0 31.1 31.9 56.9 150.1 158.1 548.5
06 20:10 24.5 63 14.1 17.2 9 11 1013.1 0 30.6 31.5 55.8 147.3 154.8 536.9
06 20:00 24.7 64 14.49 17.4 9 15 1010.7 0 31.4 32.0 57.2 151.0 159.4 553.1
06 19:50 24.8 62 14.11 17.2 6 7 1013.1 0 30.6 31.4 55.7 146.9 154.3 535.3
06 19:40 25.1 62 14.35 17.3 9 13 1013.1 0 31.1 31.7 56.4 149.0 157.0 544.6
06 19:30 25.4 61 14.36 17.3 13 22 1010.3 0 31.1 31.5 56.1 148.1 156.2 541.9
06 19:20 25.6 61 14.52 17.5 9 13 1013.1 0 31.4 31.8 56.8 149.9 158.3 549.2
06 19:10 25.9 59 14.28 17.5 11 13 1013.1 0 30.9 31.3 55.6 146.7 154.4 535.8
06 19:00 26.3 58 14.36 17.4 11 22 1010 0 31.0 31.2 55.5 146.4 154.3 535.5
06 18:50 26.7 56 14.18 17.4 17 22 1013.1 0 30.6 30.8 54.6 144.1 151.5 525.7
06 18:40 27 55 14.16 17.4 13 17 1013.1 0 30.6 30.7 54.3 143.4 150.6 522.8
06 18:30 27.6 54 14.37 17.5 13 24 1009.6 0 31.0 30.7 54.6 144.1 151.8 527.0
06 18:20 28.1 52 14.22 17.3 19 24 1013.1 0 30.6 30.4 53.8 142.0 149.3 518.2
06 18:10 28.6 49 13.77 17.1 11 13 1013.1 0 29.6 29.5 51.7 136.4 142.6 494.8
06 18:00 28.9 49 14 17.1 13 22 1009.3 0 30.1 29.6 52.2 137.8 144.6 501.7
06 17:50 29 47 13.5 16.8 13 15 1013.1 0 29.0 29.0 50.4 133.0 138.5 480.4
06 17:40 29.3 45 13.14 16.4 11 15 1013.1 0 28.3 28.3 48.9 128.8 133.4 463.0
06 17:30 29.4 46 13.51 16.6 13 20 1009 0 29.1 28.7 50.0 131.9 137.4 477.0
06 17:20 29.7 42 12.53 15.7 13 19 1013.1 0 27.0 27.3 46.3 122.1 125.3 434.7
06 17:10 30.3 41 12.64 15.9 17 19 1013.1 0 27.2 27.3 46.4 122.3 125.7 436.0
06 17:00 29.9 43 12.97 16 13 24 1008.9 0 27.9 27.7 47.7 125.7 129.9 450.8
06 16:50 30.7 43 13.54 17 13 17 1013.1 0 29.0 28.5 49.5 130.6 136.0 472.0
06 16:40 29.7 45 13.43 16.8 15 17 1013.1 0 28.8 28.6 49.7 131.1 136.4 473.2
06 16:30 30.1 45 13.72 16.9 13 20 1008.8 0 29.4 28.8 50.3 132.9 138.8 481.8
06 16:20 30.7 43 13.54 17 15 17 1013.1 0 29.0 28.5 49.5 130.6 136.0 472.0
06 16:10 30.9 42 13.37 16.8 17 24 1013.1 0 28.6 28.2 48.7 128.6 133.6 463.6
06 16:00 30.6 43 13.47 16.6 15 22 1008.6 0 28.9 28.3 49.1 129.5 134.8 468.0
06 15:50 30.6 45 14.1 17.3 19 20 1013.1 0 30.2 29.4 51.7 136.4 143.1 496.9
06 15:40 29.6 47 13.95 17.1 15 19 1013.1 0 29.9 29.5 51.8 136.6 143.0 496.6
06 15:30 29.8 45 13.5 16.9 13 22 1008.7 0 29.0 28.6 49.7 131.1 136.6 474.1
06 15:20 31.1 42 13.52 17 13 22 1013.1 0 28.9 28.3 49.2 129.7 135.1 468.8
06 15:10 31 44 14.08 17.6 13 20 1013.1 0 30.1 29.2 51.3 135.5 142.1 493.5
06 15:00 31 42 13.44 16.6 11 24 1008.9 0 28.8 28.1 48.7 128.6 133.8 464.5
06 14:50 31.2 42 13.59 17.1 11 17 1013.1 0 29.1 28.4 49.4 130.3 135.7 471.2
06 14:40 29.7 45 13.43 16.5 13 19 1013.1 0 28.8 28.6 49.7 131.1 136.4 473.2
06 14:30 31.8 43 14.37 17.7 13 20 1009.2 0 30.7 29.3 51.7 136.6 143.9 499.7
06 14:20 30.3 44 13.56 17 13 15 1013.1 0 29.1 28.6 49.8 131.4 136.9 475.3

Last Refresh: 07-Aug-2020 07:14:46

Most of the information presented on this site is sourced from the Bureau of Meteorology.  Copyright in all material sourced from the Bureau of Meteorology resides with the Commonwealth of Australia.